Time;durP1;ratioP1;P1;durP2;ratioP2;P2;SDS_P1;SDS_P2;PMS_P1;PMS_P2;Temp;Humidity;BMP_temperature;BMP_pressure;BME280_temperature;BME280_humidity;BME280_pressure;Samples;Min_cycle;Max_cycle;Signal;HPM_P1;HPM_P2
2021/12/06 00:02:24;;;;;;;0.20;0.20;;;;;;;;;;5019071;28;20205;-66
2021/12/06 00:04:50;;;;;;;0.20;0.20;;;;;;;;;;5017899;28;20202;-67
2021/12/06 00:07:20;;;;;;;0.20;0.20;;;;;;;;;;5029474;28;20202;-66
2021/12/06 00:09:46;;;;;;;0.20;0.20;;;;;;;;;;5011416;28;20209;-66
2021/12/06 00:12:13;;;;;;;0.20;0.20;;;;;;;;;;5013348;28;20205;-67
2021/12/06 00:14:41;;;;;;;0.20;0.20;;;;;;;;;;5024967;28;20217;-66
2021/12/06 00:17:08;;;;;;;1.10;1.10;;;;;;;;;;5025056;28;20493;-66
2021/12/06 00:19:34;;;;;;;0.23;0.23;;;;;;;;;;5010412;28;20442;-67
2021/12/06 00:22:02;;;;;;;0.20;0.20;;;;;;;;;;5018904;28;20213;-66
2021/12/06 00:24:29;;;;;;;0.20;0.20;;;;;;;;;;5020592;28;20209;-67
2021/12/06 00:26:55;;;;;;;0.20;0.20;;;;;;;;;;5035186;28;20416;-68
2021/12/06 00:29:22;;;;;;;0.20;0.20;;;;;;;;;;5023526;28;20438;-67
2021/12/06 00:31:48;;;;;;;0.37;0.37;;;;;;;;;;5024173;28;20256;-67
2021/12/06 00:34:18;;;;;;;0.20;0.20;;;;;;;;;;5022474;28;20233;-66
2021/12/06 00:36:52;;;;;;;0.20;0.20;;;;;;;;;;5022000;28;20524;-66
2021/12/06 00:39:19;;;;;;;0.20;0.20;;;;;;;;;;5020162;28;20304;-65
2021/12/06 00:41:47;;;;;;;0.20;0.20;;;;;;;;;;5019460;28;20204;-66
2021/12/06 00:44:13;;;;;;;0.20;0.20;;;;;;;;;;5019547;28;20220;-67
2021/12/06 00:46:40;;;;;;;0.20;0.20;;;;;;;;;;5014332;28;20218;-65
2021/12/06 00:49:06;;;;;;;0.20;0.20;;;;;;;;;;5017797;28;20252;-66
2021/12/06 00:51:32;;;;;;;0.20;0.20;;;;;;;;;;5019737;28;20208;-66
2021/12/06 00:53:59;;;;;;;0.57;0.57;;;;;;;;;;5017161;28;20253;-67
2021/12/06 00:56:25;;;;;;;0.20;0.20;;;;;;;;;;5015315;28;20257;-67
2021/12/06 00:58:53;;;;;;;0.20;0.20;;;;;;;;;;5023311;28;20206;-66
2021/12/06 01:01:19;;;;;;;0.20;0.20;;;;;;;;;;5015520;28;20279;-68
2021/12/06 01:03:45;;;;;;;0.20;0.20;;;;;;;;;;5023695;28;20199;-66
2021/12/06 01:06:12;;;;;;;0.20;0.20;;;;;;;;;;5019891;28;20323;-67
2021/12/06 01:08:39;;;;;;;0.20;0.20;;;;;;;;;;5025336;28;20202;-66
2021/12/06 01:11:07;;;;;;;0.30;0.30;;;;;;;;;;5015528;28;20228;-66
2021/12/06 01:13:33;;;;;;;0.20;0.20;;;;;;;;;;5023547;28;20229;-69
2021/12/06 01:16:01;;;;;;;0.20;0.20;;;;;;;;;;5012553;28;20217;-67
2021/12/06 01:18:27;;;;;;;0.20;0.20;;;;;;;;;;5016226;28;20205;-67
2021/12/06 01:21:01;;;;;;;0.20;0.20;;;;;;;;;;5011782;28;20248;-67
2021/12/06 01:23:40;;;;;;;0.23;0.23;;;;;;;;;;5010535;28;20204;-67
2021/12/06 01:26:26;;;;;;;0.20;0.20;;;;;;;;;;5024656;28;20232;-66
2021/12/06 01:29:24;;;;;;;0.20;0.20;;;;;;;;;;5022796;28;20240;-66
2021/12/06 01:31:58;;;;;;;0.20;0.20;;;;;;;;;;5010368;28;20197;-66
2021/12/06 01:39:52;;;;;;;0.20;0.20;;;;;;;;;;5020323;28;20206;-66
2021/12/06 01:42:18;;;;;;;0.20;0.20;;;;;;;;;;5022389;28;20207;-66
2021/12/06 01:44:46;;;;;;;0.20;0.20;;;;;;;;;;5018977;28;20260;-66
2021/12/06 01:47:15;;;;;;;0.20;0.20;;;;;;;;;;5019112;28;20260;-66
2021/12/06 01:49:45;;;;;;;0.20;0.20;;;;;;;;;;5018253;28;20269;-66
2021/12/06 01:52:13;;;;;;;0.20;0.20;;;;;;;;;;5009850;28;20567;-66
2021/12/06 01:54:40;;;;;;;0.20;0.20;;;;;;;;;;5021432;28;20226;-66
2021/12/06 01:57:06;;;;;;;0.20;0.20;;;;;;;;;;5016650;28;20264;-67
2021/12/06 01:59:33;;;;;;;0.20;0.20;;;;;;;;;;5019223;28;20274;-66
2021/12/06 02:01:59;;;;;;;0.20;0.20;;;;;;;;;;5014656;28;20210;-66
2021/12/06 02:04:28;;;;;;;0.20;0.20;;;;;;;;;;5019858;28;20205;-66
2021/12/06 02:06:55;;;;;;;0.20;0.20;;;;;;;;;;5026611;28;20272;-66
2021/12/06 02:09:25;;;;;;;0.20;0.20;;;;;;;;;;5021813;28;20214;-71
2021/12/06 02:11:52;;;;;;;0.20;0.20;;;;;;;;;;5013668;28;20202;-70
2021/12/06 02:14:27;;;;;;;0.20;0.20;;;;;;;;;;5010978;28;20341;-71
2021/12/06 02:17:03;;;;;;;0.20;0.20;;;;;;;;;;5006612;28;20210;-71
2021/12/06 02:19:33;;;;;;;0.20;0.20;;;;;;;;;;5016755;28;20241;-71
2021/12/06 02:22:02;;;;;;;0.20;0.20;;;;;;;;;;5005430;28;20256;-71
2021/12/06 02:24:28;;;;;;;0.20;0.20;;;;;;;;;;5016640;28;20278;-71
2021/12/06 02:26:54;;;;;;;0.20;0.20;;;;;;;;;;5010750;28;20412;-71
2021/12/06 02:29:21;;;;;;;0.20;0.20;;;;;;;;;;5021062;28;20259;-70
2021/12/06 02:31:47;;;;;;;0.20;0.20;;;;;;;;;;5010172;28;20255;-71
2021/12/06 02:34:13;;;;;;;0.20;0.20;;;;;;;;;;5021638;28;20381;-71
2021/12/06 02:36:40;;;;;;;0.20;0.20;;;;;;;;;;5020791;28;20237;-71
2021/12/06 02:39:10;;;;;;;0.20;0.20;;;;;;;;;;5020517;28;20209;-71
2021/12/06 02:41:36;;;;;;;0.20;0.20;;;;;;;;;;5018882;28;20239;-70
2021/12/06 02:44:04;;;;;;;0.20;0.20;;;;;;;;;;5019619;28;20197;-71
2021/12/06 02:46:30;;;;;;;0.20;0.20;;;;;;;;;;5015181;28;20202;-72
2021/12/06 02:48:56;;;;;;;0.20;0.20;;;;;;;;;;5018537;28;20204;-71
2021/12/06 02:51:25;;;;;;;0.20;0.20;;;;;;;;;;5014242;28;20202;-71
2021/12/06 02:53:51;;;;;;;0.20;0.20;;;;;;;;;;5027265;28;20528;-70
2021/12/06 02:56:30;;;;;;;1.13;1.13;;;;;;;;;;5014026;28;20210;-70
2021/12/06 02:58:58;;;;;;;0.20;0.20;;;;;;;;;;5021780;28;20209;-71
2021/12/06 03:01:26;;;;;;;0.20;0.20;;;;;;;;;;5016155;28;20201;-70
2021/12/06 03:03:53;;;;;;;0.30;0.30;;;;;;;;;;5010744;28;20211;-71
2021/12/06 03:06:19;;;;;;;0.20;0.20;;;;;;;;;;5009882;28;20227;-71
2021/12/06 03:08:48;;;;;;;0.20;0.20;;;;;;;;;;5019093;28;20205;-70
2021/12/06 03:11:16;;;;;;;0.20;0.20;;;;;;;;;;5014624;28;20205;-71
2021/12/06 03:13:44;;;;;;;0.20;0.20;;;;;;;;;;5022655;28;20201;-71
2021/12/06 03:16:11;;;;;;;0.20;0.20;;;;;;;;;;5025247;28;20504;-70
2021/12/06 03:18:37;;;;;;;0.20;0.20;;;;;;;;;;5020840;28;20214;-71
2021/12/06 03:21:03;;;;;;;0.20;0.20;;;;;;;;;;5022878;28;20206;-71
2021/12/06 03:23:30;;;;;;;0.20;0.20;;;;;;;;;;5024735;28;20218;-70
2021/12/06 03:25:56;;;;;;;0.20;0.20;;;;;;;;;;5024352;28;20217;-70
2021/12/06 03:28:22;;;;;;;0.20;0.20;;;;;;;;;;5024480;28;20205;-70
2021/12/06 03:30:50;;;;;;;0.20;0.20;;;;;;;;;;5022005;28;20509;-71
2021/12/06 03:33:16;;;;;;;0.30;0.30;;;;;;;;;;5023403;28;20272;-70
2021/12/06 03:35:42;;;;;;;0.20;0.20;;;;;;;;;;5019604;28;20413;-70
2021/12/06 03:38:09;;;;;;;0.20;0.20;;;;;;;;;;5013833;28;20305;-70
2021/12/06 03:40:35;;;;;;;0.20;0.20;;;;;;;;;;5024024;28;20210;-70
2021/12/06 03:43:01;;;;;;;0.67;0.67;;;;;;;;;;5014392;28;20209;-70
2021/12/06 03:45:27;;;;;;;0.27;0.27;;;;;;;;;;5024199;28;20547;-70
2021/12/06 03:47:55;;;;;;;0.20;0.20;;;;;;;;;;5021535;28;20216;-70
2021/12/06 03:50:21;;;;;;;0.30;0.30;;;;;;;;;;5022148;28;20563;-71
2021/12/06 03:52:47;;;;;;;0.20;0.20;;;;;;;;;;5025494;28;20208;-71
2021/12/06 03:55:14;;;;;;;0.20;0.20;;;;;;;;;;5022147;28;20283;-70
2021/12/06 03:57:40;;;;;;;0.20;0.20;;;;;;;;;;5011920;28;20492;-69
2021/12/06 04:00:08;;;;;;;0.20;0.20;;;;;;;;;;5025448;28;20279;-70
2021/12/06 04:02:34;;;;;;;0.20;0.20;;;;;;;;;;5016815;28;20203;-71
2021/12/06 04:05:02;;;;;;;0.20;0.20;;;;;;;;;;5019187;28;20226;-71
2021/12/06 04:07:28;;;;;;;0.70;0.70;;;;;;;;;;5020620;28;20248;-70
2021/12/06 04:09:55;;;;;;;0.20;0.20;;;;;;;;;;5028180;28;20400;-70
2021/12/06 04:12:21;;;;;;;0.20;0.20;;;;;;;;;;5013541;28;20400;-70
2021/12/06 04:14:47;;;;;;;0.20;0.20;;;;;;;;;;5023471;28;20226;-69
2021/12/06 04:17:13;;;;;;;0.20;0.20;;;;;;;;;;5023939;28;20273;-69
2021/12/06 04:19:40;;;;;;;0.20;0.20;;;;;;;;;;5022738;28;20217;-71
2021/12/06 04:22:07;;;;;;;0.20;0.20;;;;;;;;;;5021467;28;20205;-70
2021/12/06 04:24:34;;;;;;;0.20;0.20;;;;;;;;;;5024756;28;20206;-70
2021/12/06 04:27:05;;;;;;;0.20;0.20;;;;;;;;;;5018995;28;20399;-71
2021/12/06 04:29:31;;;;;;;0.20;0.20;;;;;;;;;;5024854;28;20328;-71
2021/12/06 04:31:58;;;;;;;0.20;0.20;;;;;;;;;;5020289;28;20259;-70
2021/12/06 04:34:24;;;;;;;0.20;0.20;;;;;;;;;;5023033;28;20272;-70
2021/12/06 04:36:51;;;;;;;0.20;0.20;;;;;;;;;;5019419;28;20202;-69
2021/12/06 04:39:20;;;;;;;0.20;0.20;;;;;;;;;;5018599;28;20201;-70
2021/12/06 04:41:46;;;;;;;0.20;0.20;;;;;;;;;;5014019;28;20214;-70
2021/12/06 04:44:13;;;;;;;0.20;0.20;;;;;;;;;;5022246;28;20212;-70
2021/12/06 04:46:39;;;;;;;0.20;0.20;;;;;;;;;;5013604;28;20249;-69
2021/12/06 04:49:06;;;;;;;0.30;0.30;;;;;;;;;;5013944;28;20217;-69
2021/12/06 04:51:32;;;;;;;0.20;0.20;;;;;;;;;;5013148;28;20202;-70
2021/12/06 04:53:59;;;;;;;0.20;0.20;;;;;;;;;;5010791;28;20206;-70
2021/12/06 04:56:28;;;;;;;0.20;0.20;;;;;;;;;;5012424;28;20225;-70
2021/12/06 04:58:58;;;;;;;0.20;0.20;;;;;;;;;;5008451;28;20206;-70
2021/12/06 05:01:28;;;;;;;0.20;0.20;;;;;;;;;;5010407;28;20209;-69
2021/12/06 05:03:55;;;;;;;0.20;0.20;;;;;;;;;;5015936;28;20233;-69
2021/12/06 05:06:23;;;;;;;0.20;0.20;;;;;;;;;;5011210;28;20221;-70
2021/12/06 05:08:50;;;;;;;0.20;0.20;;;;;;;;;;5006287;28;20280;-71
2021/12/06 05:11:18;;;;;;;0.20;0.20;;;;;;;;;;5010364;28;20206;-70
2021/12/06 05:13:46;;;;;;;0.20;0.20;;;;;;;;;;5023351;28;20277;-69
2021/12/06 05:16:12;;;;;;;0.50;0.50;;;;;;;;;;5022899;28;20602;-69
2021/12/06 05:18:39;;;;;;;0.20;0.20;;;;;;;;;;5022502;28;20224;-70
2021/12/06 05:21:06;;;;;;;0.20;0.20;;;;;;;;;;5022106;28;20205;-70
2021/12/06 05:23:32;;;;;;;0.20;0.20;;;;;;;;;;5018883;28;20213;-70
2021/12/06 05:25:58;;;;;;;2.87;2.77;;;;;;;;;;5012315;28;20511;-71
2021/12/06 05:28:28;;;;;;;0.20;0.20;;;;;;;;;;5021134;28;20201;-71
2021/12/06 05:30:57;;;;;;;0.20;0.20;;;;;;;;;;5013332;28;20203;-70
2021/12/06 05:33:30;;;;;;;0.20;0.20;;;;;;;;;;5017626;28;20206;-71
2021/12/06 05:35:56;;;;;;;0.27;0.27;;;;;;;;;;5010729;28;20221;-71
2021/12/06 05:38:22;;;;;;;0.20;0.20;;;;;;;;;;5015705;28;20260;-71
2021/12/06 05:40:50;;;;;;;0.20;0.20;;;;;;;;;;5017243;28;20225;-71
2021/12/06 05:43:16;;;;;;;0.20;0.20;;;;;;;;;;5023110;28;20206;-71
2021/12/06 05:45:42;;;;;;;0.20;0.20;;;;;;;;;;5017235;28;20198;-71
2021/12/06 05:48:10;;;;;;;0.20;0.20;;;;;;;;;;5021596;28;20211;-71
2021/12/06 05:50:36;;;;;;;0.20;0.20;;;;;;;;;;5011814;28;20262;-70
2021/12/06 05:53:03;;;;;;;0.20;0.20;;;;;;;;;;5015227;28;20206;-70
2021/12/06 05:55:29;;;;;;;0.20;0.20;;;;;;;;;;5009898;28;20288;-71
2021/12/06 05:57:56;;;;;;;0.20;0.20;;;;;;;;;;5017165;28;20209;-70
2021/12/06 06:00:25;;;;;;;0.20;0.20;;;;;;;;;;5016959;28;20201;-71
2021/12/06 06:02:51;;;;;;;0.20;0.20;;;;;;;;;;5012514;28;20391;-71
2021/12/06 06:05:20;;;;;;;0.20;0.20;;;;;;;;;;5016668;28;20221;-71
2021/12/06 06:07:46;;;;;;;0.43;0.43;;;;;;;;;;5016102;28;20509;-69
2021/12/06 06:10:13;;;;;;;0.20;0.20;;;;;;;;;;5013415;28;20259;-70
2021/12/06 06:12:39;;;;;;;0.20;0.20;;;;;;;;;;5022872;28;20202;-69
2021/12/06 06:15:06;;;;;;;0.20;0.20;;;;;;;;;;5019539;28;20222;-69
2021/12/06 06:17:39;;;;;;;0.20;0.20;;;;;;;;;;5021374;28;20247;-69
2021/12/06 06:20:07;;;;;;;0.20;0.20;;;;;;;;;;5019237;28;20214;-71
2021/12/06 06:22:34;;;;;;;0.20;0.20;;;;;;;;;;5022996;28;20228;-70
2021/12/06 06:25:00;;;;;;;0.20;0.20;;;;;;;;;;5017361;28;20202;-69
2021/12/06 06:27:27;;;;;;;0.20;0.20;;;;;;;;;;5019953;28;20205;-69
2021/12/06 06:29:53;;;;;;;0.20;0.20;;;;;;;;;;5019793;28;20247;-69
2021/12/06 06:32:19;;;;;;;0.20;0.20;;;;;;;;;;5020151;28;20248;-70
2021/12/06 06:34:45;;;;;;;0.20;0.20;;;;;;;;;;5022030;28;20209;-71
2021/12/06 06:37:11;;;;;;;0.20;0.20;;;;;;;;;;5024342;28;20208;-70
2021/12/06 06:39:39;;;;;;;0.20;0.20;;;;;;;;;;5026666;28;20465;-70
2021/12/06 06:42:06;;;;;;;0.20;0.20;;;;;;;;;;5016515;28;20210;-70
2021/12/06 06:44:33;;;;;;;0.20;0.20;;;;;;;;;;5012827;28;20438;-68
2021/12/06 06:46:59;;;;;;;0.20;0.20;;;;;;;;;;5017156;28;20248;-70
2021/12/06 06:49:25;;;;;;;0.20;0.20;;;;;;;;;;5020879;28;20263;-71
2021/12/06 06:51:51;;;;;;;0.20;0.20;;;;;;;;;;5021369;28;20229;-71
2021/12/06 06:54:17;;;;;;;0.20;0.20;;;;;;;;;;5024755;28;20252;-71
2021/12/06 06:56:45;;;;;;;0.60;0.60;;;;;;;;;;5013514;28;20225;-71
2021/12/06 06:59:11;;;;;;;0.20;0.20;;;;;;;;;;5014645;28;20216;-70
2021/12/06 07:01:38;;;;;;;0.20;0.20;;;;;;;;;;5011071;28;20253;-70
2021/12/06 07:04:04;;;;;;;0.20;0.20;;;;;;;;;;5017032;28;20212;-69
2021/12/06 07:06:30;;;;;;;0.30;0.30;;;;;;;;;;5013787;28;20248;-70
2021/12/06 07:08:57;;;;;;;0.20;0.20;;;;;;;;;;5015796;28;20556;-70
2021/12/06 07:11:24;;;;;;;0.30;0.30;;;;;;;;;;5021879;28;20237;-69
2021/12/06 07:13:52;;;;;;;0.30;0.30;;;;;;;;;;5020720;28;20201;-71
2021/12/06 07:16:19;;;;;;;0.20;0.20;;;;;;;;;;5017287;28;20226;-71
2021/12/06 07:18:45;;;;;;;0.20;0.20;;;;;;;;;;5021328;28;20246;-68
2021/12/06 07:21:12;;;;;;;0.20;0.20;;;;;;;;;;5016139;28;20233;-69
2021/12/06 07:23:39;;;;;;;3.50;3.40;;;;;;;;;;5019601;28;20202;-68
2021/12/06 07:26:06;;;;;;;0.20;0.20;;;;;;;;;;5014417;28;20206;-68
2021/12/06 07:28:32;;;;;;;0.20;0.20;;;;;;;;;;5014722;28;20197;-69
2021/12/06 07:31:01;;;;;;;0.20;0.20;;;;;;;;;;5006258;28;20210;-70
2021/12/06 07:33:27;;;;;;;0.37;0.37;;;;;;;;;;5006956;28;20544;-71
2021/12/06 07:35:53;;;;;;;0.20;0.20;;;;;;;;;;5009197;28;20302;-71
2021/12/06 07:38:20;;;;;;;0.20;0.20;;;;;;;;;;5013449;28;20219;-71
2021/12/06 07:40:49;;;;;;;0.30;0.30;;;;;;;;;;5011643;28;20257;-70
2021/12/06 07:43:16;;;;;;;0.30;0.30;;;;;;;;;;5012167;28;20479;-69
2021/12/06 07:45:42;;;;;;;0.23;0.23;;;;;;;;;;5014035;28;20205;-70
2021/12/06 07:48:10;;;;;;;0.20;0.20;;;;;;;;;;5012226;28;20208;-69
2021/12/06 07:50:36;;;;;;;0.23;0.23;;;;;;;;;;5013500;28;20273;-70
2021/12/06 07:53:03;;;;;;;0.20;0.20;;;;;;;;;;5010723;28;20248;-70
2021/12/06 07:55:32;;;;;;;0.20;0.20;;;;;;;;;;5021274;28;20239;-71
2021/12/06 07:57:59;;;;;;;0.20;0.20;;;;;;;;;;5024610;28;20205;-71
2021/12/06 08:00:26;;;;;;;0.20;0.20;;;;;;;;;;5009154;28;20201;-71
2021/12/06 08:02:53;;;;;;;0.20;0.20;;;;;;;;;;5012594;28;20382;-71
2021/12/06 08:05:30;;;;;;;0.20;0.20;;;;;;;;;;5020705;28;20554;-71
2021/12/06 08:07:57;;;;;;;0.20;0.20;;;;;;;;;;5020975;28;20567;-71
2021/12/06 08:10:23;;;;;;;0.20;0.20;;;;;;;;;;5024688;28;20251;-72
2021/12/06 08:12:50;;;;;;;0.20;0.20;;;;;;;;;;5025353;28;20493;-72
2021/12/06 08:15:16;;;;;;;0.20;0.20;;;;;;;;;;5010901;28;20201;-72
2021/12/06 08:17:42;;;;;;;0.20;0.20;;;;;;;;;;5024640;28;20208;-73
2021/12/06 08:20:10;;;;;;;0.20;0.20;;;;;;;;;;5020804;28;20234;-71
2021/12/06 08:22:38;;;;;;;0.20;0.20;;;;;;;;;;5017914;28;20399;-72
2021/12/06 08:25:06;;;;;;;0.20;0.20;;;;;;;;;;5021354;28;20213;-70
2021/12/06 08:27:32;;;;;;;1.33;1.33;;;;;;;;;;5011795;28;20431;-70
2021/12/06 08:29:58;;;;;;;0.20;0.20;;;;;;;;;;5013707;28;20214;-70
2021/12/06 08:32:24;;;;;;;0.20;0.20;;;;;;;;;;5018399;28;20625;-71
2021/12/06 08:34:51;;;;;;;0.20;0.20;;;;;;;;;;5016410;28;20206;-71
2021/12/06 08:37:17;;;;;;;0.20;0.20;;;;;;;;;;5008635;28;20252;-72
2021/12/06 08:39:44;;;;;;;0.20;0.20;;;;;;;;;;5009218;28;20212;-71
2021/12/06 08:42:11;;;;;;;0.20;0.20;;;;;;;;;;5005543;28;20210;-71
2021/12/06 08:44:37;;;;;;;0.30;0.30;;;;;;;;;;5022844;28;20202;-72
2021/12/06 08:47:04;;;;;;;0.20;0.20;;;;;;;;;;5018316;28;20202;-71
2021/12/06 08:49:30;;;;;;;0.20;0.20;;;;;;;;;;5023943;28;20244;-71
2021/12/06 08:51:57;;;;;;;0.20;0.20;;;;;;;;;;5018029;28;20253;-72
2021/12/06 08:54:26;;;;;;;0.20;0.20;;;;;;;;;;5022491;28;20505;-72
2021/12/06 08:56:55;;;;;;;0.20;0.20;;;;;;;;;;5018520;28;20230;-72
2021/12/06 08:59:22;;;;;;;0.20;0.20;;;;;;;;;;5023551;28;20207;-72
2021/12/06 09:01:48;;;;;;;0.20;0.20;;;;;;;;;;5012515;28;20210;-71
2021/12/06 09:04:14;;;;;;;0.20;0.20;;;;;;;;;;5017192;28;20244;-72
2021/12/06 09:06:42;;;;;;;0.20;0.20;;;;;;;;;;5012870;28;20226;-71
2021/12/06 09:09:09;;;;;;;0.20;0.20;;;;;;;;;;5015987;28;20212;-71
2021/12/06 09:11:36;;;;;;;0.20;0.20;;;;;;;;;;5021140;28;20232;-70
2021/12/06 09:14:04;;;;;;;0.20;0.20;;;;;;;;;;5010152;28;20252;-72
2021/12/06 09:16:30;;;;;;;0.20;0.20;;;;;;;;;;5012291;28;20230;-72
2021/12/06 09:18:58;;;;;;;0.20;0.20;;;;;;;;;;5011913;28;20231;-72
2021/12/06 09:21:24;;;;;;;0.20;0.20;;;;;;;;;;5008886;28;20204;-73
2021/12/06 09:23:52;;;;;;;0.20;0.20;;;;;;;;;;5018625;28;20395;-72
2021/12/06 09:26:18;;;;;;;0.20;0.20;;;;;;;;;;5012772;28;20202;-71
2021/12/06 09:28:45;;;;;;;0.20;0.20;;;;;;;;;;5011532;28;20497;-71
2021/12/06 09:31:13;;;;;;;0.17;0.17;;;;;;;;;;5012532;28;20208;-71
2021/12/06 09:33:39;;;;;;;0.20;0.20;;;;;;;;;;5011428;28;20517;-69
2021/12/06 09:36:06;;;;;;;0.20;0.20;;;;;;;;;;5003822;28;20226;-68
2021/12/06 09:38:37;;;;;;;0.20;0.20;;;;;;;;;;5016035;28;20302;-71
2021/12/06 09:41:05;;;;;;;0.20;0.20;;;;;;;;;;5008887;28;20203;-68
2021/12/06 09:43:37;;;;;;;0.20;0.20;;;;;;;;;;5008432;28;20430;-68
2021/12/06 09:46:03;;;;;;;0.20;0.20;;;;;;;;;;5015456;28;20244;-69
2021/12/06 09:48:31;;;;;;;0.20;0.20;;;;;;;;;;5013783;28;20317;-69
2021/12/06 09:50:58;;;;;;;0.20;0.20;;;;;;;;;;5004387;28;20261;-69
2021/12/06 09:53:26;;;;;;;0.20;0.20;;;;;;;;;;5010778;28;20253;-67
2021/12/06 09:55:53;;;;;;;0.20;0.20;;;;;;;;;;5018737;28;20202;-68
2021/12/06 09:58:20;;;;;;;0.20;0.20;;;;;;;;;;5007836;28;20204;-70
2021/12/06 10:00:48;;;;;;;0.20;0.20;;;;;;;;;;5011082;28;20207;-70
2021/12/06 10:03:17;;;;;;;0.20;0.20;;;;;;;;;;5016928;28;20220;-69
2021/12/06 10:05:45;;;;;;;0.20;0.20;;;;;;;;;;5017258;28;20226;-70
2021/12/06 10:08:12;;;;;;;0.20;0.20;;;;;;;;;;5018400;28;20214;-70
2021/12/06 10:10:39;;;;;;;0.20;0.20;;;;;;;;;;5014991;28;20440;-70
2021/12/06 10:13:06;;;;;;;0.20;0.20;;;;;;;;;;5018083;28;20278;-69
2021/12/06 10:15:32;;;;;;;0.20;0.20;;;;;;;;;;5021859;28;20199;-69
2021/12/06 10:18:00;;;;;;;0.20;0.20;;;;;;;;;;5021091;28;20564;-67
2021/12/06 10:20:27;;;;;;;0.20;0.20;;;;;;;;;;5017608;28;20495;-70
2021/12/06 10:22:56;;;;;;;0.20;0.20;;;;;;;;;;5020161;28;20216;-71
2021/12/06 10:25:23;;;;;;;0.20;0.20;;;;;;;;;;5014741;28;20210;-70
2021/12/06 10:27:53;;;;;;;0.20;0.20;;;;;;;;;;5014973;28;20199;-70
2021/12/06 10:30:19;;;;;;;0.20;0.20;;;;;;;;;;5018780;28;20207;-70
2021/12/06 10:32:46;;;;;;;0.20;0.20;;;;;;;;;;5008822;28;20202;-72
2021/12/06 10:35:13;;;;;;;0.20;0.20;;;;;;;;;;5003190;28;20210;-72
2021/12/06 10:37:45;;;;;;;0.20;0.20;;;;;;;;;;5009790;28;20584;-72
2021/12/06 10:40:14;;;;;;;0.20;0.20;;;;;;;;;;5012202;28;20209;-72
2021/12/06 10:42:42;;;;;;;0.20;0.20;;;;;;;;;;5007803;28;20213;-73
2021/12/06 10:45:10;;;;;;;0.23;0.23;;;;;;;;;;5022990;28;20565;-73
2021/12/06 10:47:36;;;;;;;0.20;0.20;;;;;;;;;;5017001;28;20256;-71
2021/12/06 10:50:15;;;;;;;0.20;0.20;;;;;;;;;;5022845;28;20238;-71
2021/12/06 10:52:48;;;;;;;0.20;0.20;;;;;;;;;;5017137;28;20280;-71
2021/12/06 10:55:17;;;;;;;0.20;0.20;;;;;;;;;;5017559;28;20205;-71
2021/12/06 10:57:48;;;;;;;0.20;0.20;;;;;;;;;;5007842;28;20529;-72
2021/12/06 11:00:27;;;;;;;0.20;0.20;;;;;;;;;;5014560;28;20209;-72
2021/12/06 11:02:53;;;;;;;0.20;0.20;;;;;;;;;;5017780;28;20202;-71
2021/12/06 11:05:23;;;;;;;0.20;0.20;;;;;;;;;;5011136;28;20231;-71
2021/12/06 11:07:56;;;;;;;0.20;0.20;;;;;;;;;;5006317;28;20294;-71
2021/12/06 11:10:25;;;;;;;0.20;0.20;;;;;;;;;;5006773;28;20369;-72
2021/12/06 11:13:06;;;;;;;0.20;0.20;;;;;;;;;;5015377;28;20506;-72
2021/12/06 11:15:33;;;;;;;0.20;0.20;;;;;;;;;;5022209;28;20245;-72
2021/12/06 11:18:00;;;;;;;0.20;0.20;;;;;;;;;;5021053;28;20227;-70
2021/12/06 11:20:26;;;;;;;0.20;0.20;;;;;;;;;;5020171;28;20215;-71
2021/12/06 11:22:53;;;;;;;0.20;0.20;;;;;;;;;;5020643;28;20206;-71
2021/12/06 11:25:19;;;;;;;0.20;0.20;;;;;;;;;;5016980;28;20208;-71
2021/12/06 11:27:48;;;;;;;0.20;0.20;;;;;;;;;;5018800;28;20198;-71
2021/12/06 11:30:16;;;;;;;0.20;0.20;;;;;;;;;;5016753;28;20210;-71
2021/12/06 11:32:45;;;;;;;0.20;0.20;;;;;;;;;;5011861;28;20219;-72
2021/12/06 11:35:14;;;;;;;0.20;0.20;;;;;;;;;;5014760;28;20207;-69
2021/12/06 11:37:41;;;;;;;0.20;0.20;;;;;;;;;;5025849;28;20281;-69
2021/12/06 11:40:09;;;;;;;0.20;0.20;;;;;;;;;;5014567;28;20399;-67
2021/12/06 11:42:48;;;;;;;0.20;0.20;;;;;;;;;;5025220;28;20211;-67
2021/12/06 11:45:15;;;;;;;0.20;0.20;;;;;;;;;;5012617;28;20261;-67
2021/12/06 11:47:41;;;;;;;5.30;5.00;;;;;;;;;;5018099;28;20220;-68
2021/12/06 11:50:08;;;;;;;0.20;0.20;;;;;;;;;;5011418;28;20255;-68
2021/12/06 11:52:34;;;;;;;0.80;0.80;;;;;;;;;;5011412;28;20212;-67
2021/12/06 11:55:04;;;;;;;0.20;0.20;;;;;;;;;;5021651;28;20201;-66
2021/12/06 11:57:32;;;;;;;0.20;0.20;;;;;;;;;;5010702;28;20242;-67
2021/12/06 12:00:07;;;;;;;0.20;0.20;;;;;;;;;;5013006;28;20225;-68
2021/12/06 12:02:36;;;;;;;0.20;0.20;;;;;;;;;;5014304;28;20559;-68
2021/12/06 12:05:13;;;;;;;0.20;0.20;;;;;;;;;;5008052;28;20231;-70
2021/12/06 12:07:56;;;;;;;0.20;0.20;;;;;;;;;;5014444;28;20199;-70
2021/12/06 12:10:30;;;;;;;0.20;0.20;;;;;;;;;;5005988;28;20226;-68
2021/12/06 12:12:56;;;;;;;0.20;0.20;;;;;;;;;;5013170;28;20501;-68
2021/12/06 12:15:24;;;;;;;0.20;0.20;;;;;;;;;;5010611;28;20221;-68
2021/12/06 12:17:51;;;;;;;0.20;0.20;;;;;;;;;;5019183;28;20296;-69
2021/12/06 12:20:22;;;;;;;0.20;0.20;;;;;;;;;;5022631;28;20220;-68
2021/12/06 12:22:50;;;;;;;0.20;0.20;;;;;;;;;;5025158;28;20222;-68
2021/12/06 12:25:24;;;;;;;0.20;0.20;;;;;;;;;;5022640;28;20202;-68
2021/12/06 12:27:57;;;;;;;0.23;0.23;;;;;;;;;;5024873;28;20364;-67
2021/12/06 12:30:31;;;;;;;0.30;0.30;;;;;;;;;;5021909;28;20207;-68
2021/12/06 12:32:57;;;;;;;0.20;0.20;;;;;;;;;;5011512;28;20499;-68
2021/12/06 12:35:24;;;;;;;0.50;0.50;;;;;;;;;;5020027;28;20255;-69
2021/12/06 12:37:52;;;;;;;0.30;0.30;;;;;;;;;;5019895;28;20333;-70
2021/12/06 12:40:20;;;;;;;0.20;0.20;;;;;;;;;;5019201;28;20306;-69
2021/12/06 12:42:54;;;;;;;0.20;0.20;;;;;;;;;;5021586;28;20494;-69
2021/12/06 12:45:20;;;;;;;0.20;0.20;;;;;;;;;;5019095;28;20199;-69
2021/12/06 12:47:48;;;;;;;0.20;0.20;;;;;;;;;;5013447;28;20373;-69
2021/12/06 12:50:15;;;;;;;0.20;0.20;;;;;;;;;;5015348;28;20215;-71
2021/12/06 12:52:43;;;;;;;0.20;0.20;;;;;;;;;;5006087;28;20494;-70
2021/12/06 12:55:19;;;;;;;0.20;0.20;;;;;;;;;;5004762;28;20252;-70
2021/12/06 12:57:46;;;;;;;0.20;0.20;;;;;;;;;;5017864;28;20230;-71
2021/12/06 13:00:16;;;;;;;0.20;0.20;;;;;;;;;;5033551;28;20257;-69
2021/12/06 13:02:45;;;;;;;0.20;0.20;;;;;;;;;;5023785;28;20244;-70
2021/12/06 13:05:15;;;;;;;0.20;0.20;;;;;;;;;;5023510;28;20298;-70
2021/12/06 13:07:54;;;;;;;0.20;0.20;;;;;;;;;;5020122;28;20242;-71
2021/12/06 13:10:29;;;;;;;0.20;0.20;;;;;;;;;;5021720;28;20230;-69
2021/12/06 13:12:57;;;;;;;0.20;0.20;;;;;;;;;;5021467;28;20273;-69
2021/12/06 13:15:33;;;;;;;0.20;0.20;;;;;;;;;;5017727;28;20202;-70
2021/12/06 13:17:59;;;;;;;0.20;0.20;;;;;;;;;;5009039;28;20220;-70
2021/12/06 13:20:27;;;;;;;0.20;0.20;;;;;;;;;;5008778;28;20516;-71
2021/12/06 13:22:54;;;;;;;0.20;0.20;;;;;;;;;;5015264;28;20211;-70
2021/12/06 13:25:22;;;;;;;0.20;0.20;;;;;;;;;;5019175;28;20209;-70
2021/12/06 13:27:54;;;;;;;0.20;0.20;;;;;;;;;;5007951;28;20532;-71
2021/12/06 13:30:22;;;;;;;0.20;0.20;;;;;;;;;;5017226;28;20203;-71
2021/12/06 13:32:50;;;;;;;0.20;0.20;;;;;;;;;;5015112;28;20370;-70
2021/12/06 13:35:21;;;;;;;0.20;0.20;;;;;;;;;;5012109;28;20206;-70
2021/12/06 13:38:00;;;;;;;0.20;0.20;;;;;;;;;;5022822;28;20418;-69
2021/12/06 13:40:26;;;;;;;0.20;0.20;;;;;;;;;;5019120;28;20206;-70
2021/12/06 13:42:53;;;;;;;0.20;0.20;;;;;;;;;;5019832;28;20210;-70
2021/12/06 13:45:20;;;;;;;0.20;0.20;;;;;;;;;;5023095;28;20589;-70
2021/12/06 13:47:48;;;;;;;0.20;0.20;;;;;;;;;;5012890;28;20259;-71
2021/12/06 13:50:15;;;;;;;0.20;0.20;;;;;;;;;;5023043;28;20284;-70
2021/12/06 13:52:43;;;;;;;0.20;0.20;;;;;;;;;;5023408;28;20201;-68
2021/12/06 13:55:24;;;;;;;0.20;0.20;;;;;;;;;;5010987;28;20387;-69
2021/12/06 13:57:53;;;;;;;0.20;0.20;;;;;;;;;;5014645;28;20216;-68
2021/12/06 14:00:24;;;;;;;0.20;0.20;;;;;;;;;;5023745;28;20211;-68
2021/12/06 14:02:51;;;;;;;0.20;0.20;;;;;;;;;;5009440;28;20253;-68
2021/12/06 14:05:17;;;;;;;0.20;0.20;;;;;;;;;;5023043;28;20278;-69
2021/12/06 14:07:44;;;;;;;0.20;0.20;;;;;;;;;;5022586;28;20202;-69
2021/12/06 14:10:12;;;;;;;0.20;0.20;;;;;;;;;;5018689;28;20206;-69
2021/12/06 14:12:41;;;;;;;0.20;0.20;;;;;;;;;;5014618;28;20209;-70
2021/12/06 14:15:17;;;;;;;0.20;0.20;;;;;;;;;;5018095;28;20235;-69
2021/12/06 14:17:44;;;;;;;0.20;0.20;;;;;;;;;;5013673;28;20233;-69
2021/12/06 14:20:11;;;;;;;0.20;0.20;;;;;;;;;;5009089;28;20244;-69
2021/12/06 14:22:38;;;;;;;0.20;0.20;;;;;;;;;;5022992;28;20547;-70
2021/12/06 14:25:05;;;;;;;0.10;0.10;;;;;;;;;;5022831;28;20397;-70
2021/12/06 14:27:36;;;;;;;0.20;0.20;;;;;;;;;;5011227;28;20199;-68
2021/12/06 14:30:04;;;;;;;0.20;0.20;;;;;;;;;;5022474;28;20202;-69
2021/12/06 14:32:30;;;;;;;0.20;0.20;;;;;;;;;;5022040;28;20559;-69
2021/12/06 14:34:58;;;;;;;0.20;0.20;;;;;;;;;;5014542;28;20206;-69
2021/12/06 14:37:24;;;;;;;0.20;0.20;;;;;;;;;;5009691;28;20470;-68
2021/12/06 14:39:56;;;;;;;2.00;2.00;;;;;;;;;;5020618;28;20245;-68
2021/12/06 14:42:22;;;;;;;0.20;0.20;;;;;;;;;;5018996;28;20213;-68
2021/12/06 14:44:50;;;;;;;0.20;0.20;;;;;;;;;;5016833;28;20207;-68
2021/12/06 14:47:28;;;;;;;0.20;0.20;;;;;;;;;;5015259;28;20210;-68
2021/12/06 14:49:55;;;;;;;0.20;0.20;;;;;;;;;;5012024;28;20233;-68
2021/12/06 14:52:28;;;;;;;0.80;0.80;;;;;;;;;;5022752;28;20203;-68
2021/12/06 14:54:56;;;;;;;0.20;0.20;;;;;;;;;;5016959;28;20497;-68